Key West, FL

3:05 PM EDT on July 25, 2014 (GMT -0400)
Key West International (KEYW) Elev 0 ft | 24.56 °N, 81.75 °W | Change Station

Current weather conditions updated 12 minutes ago

Clear
Clear
90 °F
Feels Like 101 °F
N
9
Wind Variable Wind from SSE

Today is forecast to be nearly the same temperature as yesterday. Thunderstorms early tonight.

Today
High -- | Low -- °F
--% Chance of Precip.
Yesterday
High -- | Low -- °F
Precip. -- in
6:52 AM 8:14 PM
Waning Crescent, 1% visible
Pressure 30.06 in
Visibility 10.0 miles
Clouds Clear
Heat Index 101 °F
Dew Point 76 °F
Humidity 63%
Rainfall 0.00 in
Snow Depth Not available.
UV 15 out of 12
Pollen 3.70 out of 12
Air Quality Not available.
Flu Activity Not available.
METAR KEYW 251853Z 15008KT 10SM CLR 32/24 A3006 RMK AO2 SLP179 T03220244

More Conditions Fewer Conditions

Pressure 30.06 in
Visibility 10.0 miles
Clouds Clear
Heat Index 101 °F
Dew Point 76 °F
Humidity 63%
Rainfall 0.00 in
Snow Depth Not available.
UV 15 out of 12
Pollen 3.70 out of 12
Air Quality Not available.
Flu Activity Not available.
METAR KEYW 251853Z 15008KT 10SM CLR 32/24 A3006 RMK AO2 SLP179 T03220244

More Conditions Fewer Conditions

Nowcast | as of 2:06 PM EDT on July 25, 2014

Through 330 PM...isolated showers and possible thunderstorms will impact mainly the outer waters surrounding the Florida Keys...as well as along cloud lines on the nearshore Gulf waters of the Lower Keys. The strongest activity will produce wind gusts near 25 mph...a few lightning strike...and less than three miles visibility in heavy rain.

×

10-Day Weather Forecast

Almanac

Astronomy

Jul. 25, 2014 Rise Set
Actual Time 6:52 AM EDT 8:14 PM EDT
Civil Twilight 6:27 AM EDT 8:39 PM EDT
Nautical Twilight 5:57 AM EDT 9:08 PM EDT
Astronomical Twilight 5:27 AM EDT 9:39 PM EDT
Moon 5:46 AM EDT 7:16 PM EDT
Length of Visible Light 14h 12m
Length of Day
13h 22m
Tomorrow will be 0m 56s shorter.
Waning Crescent, 1% of the Moon is Illuminated
Today
Waning Crescent
Jul 26
New
Aug 3
First Quarter
Aug 10
Full
Aug 17
Last Quarter

Today's Extremes

State Highs State Lows

Community

WunderPhotos

Upload Photos

1,737,370 photos uploaded!

Nearby

Snow Depth

Station Depth Elevation
No new snow has been reported.

Earthquake Activity

City Distance Mag. Time & Date
No recent earthquake activity has been reported nearby.
Minimum magnitude displayed is 2.5.

Coastal Water Temperatures

Place Temperature
No Stations Reporting

Nearby Weather Stations

Station Location Temp. Heat Index Dew Point Humidity Wind Precip. Elev Updated Type
Key West, FL 89.4 °F 105 °F 79 °F 71% SSE  at  4.0 mph 0.00 in / hr 6 ft 2:52 PM EDT Normal
Cudjoe Key, FL 90.5 °F 106 °F 78 °F 68% SSE  at  10.0 mph 0.00 in / hr 16 ft 3:04 PM EDT Rapid Fire
Breezeswept Estates - Bird Lake - Ramrod, Ramrod Key, FL 88.9 °F 103 °F 78 °F 70% SE  at  6.2 mph 0.00 in / hr 25 ft 3:05 PM EDT Rapid Fire

Show More Stations Show Fewer Stations